createdAt,value
2018-06-16T00:02:15.280Z,101434.73
2018-06-16T00:04:42.179Z,101441.00
2018-06-16T00:07:09.120Z,101428.41
2018-06-16T00:09:36.026Z,101433.35
2018-06-16T00:12:02.973Z,101432.58
2018-06-16T00:14:29.888Z,101432.68
2018-06-16T00:16:56.856Z,101428.53
2018-06-16T00:19:23.781Z,101422.69
2018-06-16T00:21:50.701Z,101424.26
2018-06-16T00:24:17.736Z,101425.47
2018-06-16T00:26:44.676Z,101423.52
2018-06-16T00:29:11.592Z,101417.70
2018-06-16T00:31:38.484Z,101413.09
2018-06-16T00:34:05.395Z,101421.30
2018-06-16T00:36:32.345Z,101423.85
2018-06-16T00:38:59.252Z,101423.77
2018-06-16T00:41:26.136Z,101422.47
2018-06-16T00:43:53.033Z,101423.97
2018-06-16T00:46:19.960Z,101419.42
2018-06-16T00:48:47.170Z,101419.20
2018-06-16T00:51:14.073Z,101416.39
2018-06-16T00:53:40.966Z,101416.19
2018-06-16T00:56:07.852Z,101416.87
2018-06-16T00:58:34.737Z,101420.92
2018-06-16T01:01:01.629Z,101418.80
2018-06-16T01:03:28.534Z,101413.87
2018-06-16T01:05:55.401Z,101414.69
2018-06-16T01:08:22.568Z,101407.91
2018-06-16T01:10:50.112Z,101403.91
2018-06-16T01:13:17.017Z,101406.16
2018-06-16T01:15:43.888Z,101402.69
2018-06-16T01:18:10.788Z,101403.27
2018-06-16T01:20:37.664Z,101407.27
2018-06-16T01:23:04.563Z,101411.66
2018-06-16T01:25:31.451Z,101414.52
2018-06-16T01:27:59.296Z,101410.15
2018-06-16T01:30:26.176Z,101400.30
2018-06-16T01:32:53.056Z,101400.70
2018-06-16T01:35:19.949Z,101401.62
2018-06-16T01:37:46.857Z,101399.83
2018-06-16T01:40:13.744Z,101398.08
2018-06-16T01:42:40.640Z,101405.40
2018-06-16T01:45:07.605Z,101398.14
2018-06-16T01:47:34.486Z,101403.42
2018-06-16T01:50:01.397Z,101403.88
2018-06-16T01:52:28.273Z,101407.13
2018-06-16T01:54:55.169Z,101407.48
2018-06-16T01:57:22.045Z,101407.94
2018-06-16T01:59:48.935Z,101409.27
2018-06-16T02:02:15.825Z,101414.61
2018-06-16T02:04:42.715Z,101413.16
2018-06-16T02:07:09.601Z,101415.77
2018-06-16T02:09:36.500Z,101418.21
2018-06-16T02:12:03.601Z,101415.78
2018-06-16T02:14:30.500Z,101406.17
2018-06-16T02:16:57.381Z,101406.84
2018-06-16T02:19:24.289Z,101413.11
2018-06-16T02:21:51.197Z,101403.15
2018-06-16T02:24:18.130Z,101412.00
2018-06-16T02:26:45.042Z,101411.94
2018-06-16T02:29:11.946Z,101406.60
2018-06-16T02:31:38.853Z,101405.81
2018-06-16T02:34:05.745Z,101406.05
2018-06-16T02:36:32.644Z,101412.84
2018-06-16T02:38:59.552Z,101410.63
2018-06-16T02:41:26.469Z,101407.25
2018-06-16T02:43:53.353Z,101407.14
2018-06-16T02:46:20.264Z,101420.00
2018-06-16T02:48:47.152Z,101405.02
2018-06-16T02:51:14.082Z,101399.26
2018-06-16T02:53:40.977Z,101402.30
2018-06-16T02:56:07.898Z,101398.59
2018-06-16T02:58:34.855Z,101402.50
2018-06-16T03:01:01.765Z,101400.19
2018-06-16T03:03:28.723Z,101407.14
2018-06-16T03:05:55.653Z,101399.80
2018-06-16T03:08:22.562Z,101400.95
2018-06-16T03:10:49.478Z,101406.86
2018-06-16T03:13:16.369Z,101407.66
2018-06-16T03:15:43.259Z,101406.52
2018-06-16T03:18:10.416Z,101399.72
2018-06-16T03:20:37.300Z,101405.11
2018-06-16T03:23:04.257Z,101399.89
2018-06-16T03:25:31.188Z,101398.73
2018-06-16T03:27:58.093Z,101394.91
2018-06-16T03:30:25.002Z,101397.47
2018-06-16T03:32:51.937Z,101384.59
2018-06-16T03:35:18.840Z,101384.06
2018-06-16T03:37:45.776Z,101389.22
2018-06-16T03:40:12.686Z,101382.80
2018-06-16T03:42:39.653Z,101388.64
2018-06-16T03:45:06.609Z,101385.73
2018-06-16T03:47:33.538Z,101384.10
2018-06-16T03:50:00.453Z,101388.47
2018-06-16T03:52:27.393Z,101387.56
2018-06-16T03:54:54.297Z,101385.33
2018-06-16T03:57:21.201Z,101387.11
2018-06-16T03:59:48.081Z,101382.29
2018-06-16T04:02:14.984Z,101380.14
2018-06-16T04:04:41.879Z,101377.14
2018-06-16T04:07:08.775Z,101375.55
2018-06-16T04:09:35.674Z,101378.83
2018-06-16T04:12:02.577Z,101379.41
2018-06-16T04:14:29.461Z,101372.62
2018-06-16T04:16:56.386Z,101369.56
2018-06-16T04:19:23.277Z,101364.25
2018-06-16T04:21:50.178Z,101362.42
2018-06-16T04:24:17.078Z,101361.27
2018-06-16T04:26:44.000Z,101358.55
2018-06-16T04:29:10.921Z,101362.75
2018-06-16T04:31:37.837Z,101364.13
2018-06-16T04:34:04.769Z,101355.23
2018-06-16T04:36:31.722Z,101358.80
2018-06-16T04:38:58.622Z,101349.47
2018-06-16T04:41:25.553Z,101352.77
2018-06-16T04:43:52.490Z,101348.61
2018-06-16T04:46:19.394Z,101346.85
2018-06-16T04:48:46.347Z,101349.00
2018-06-16T04:51:13.258Z,101342.40
2018-06-16T04:53:40.174Z,101339.02
2018-06-16T04:56:07.095Z,101336.38
2018-06-16T04:58:34.015Z,101340.73
2018-06-16T05:01:00.929Z,101338.63
2018-06-16T05:03:27.861Z,101342.14
2018-06-16T05:05:54.788Z,101338.27
2018-06-16T05:08:21.709Z,101339.47
2018-06-16T05:10:48.625Z,101338.88
2018-06-16T05:13:15.561Z,101334.23
2018-06-16T05:15:42.490Z,101331.77
2018-06-16T05:18:09.449Z,101323.14
2018-06-16T05:20:36.361Z,101327.42
2018-06-16T05:23:03.303Z,101325.25
2018-06-16T05:25:30.223Z,101326.80
2018-06-16T05:27:57.149Z,101319.55
2018-06-16T05:30:24.064Z,101314.20
2018-06-16T05:32:50.997Z,101316.88
2018-06-16T05:35:17.921Z,101318.48
2018-06-16T05:37:44.834Z,101320.90
2018-06-16T05:40:11.783Z,101317.97
2018-06-16T05:42:38.706Z,101324.70
2018-06-16T05:45:05.642Z,101324.81
2018-06-16T05:47:32.561Z,101324.25
2018-06-16T05:49:59.481Z,101325.84
2018-06-16T05:52:26.481Z,101328.22
2018-06-16T05:54:53.621Z,101323.09
2018-06-16T05:57:20.623Z,101326.34
2018-06-16T05:59:47.557Z,101320.98
2018-06-16T06:02:14.478Z,101318.66
2018-06-16T06:04:41.405Z,101318.84
2018-06-16T06:07:08.493Z,101322.91
2018-06-16T06:09:35.427Z,101323.08
2018-06-16T06:12:02.369Z,101324.58
2018-06-16T06:14:29.298Z,101319.77
2018-06-16T06:16:56.230Z,101316.03
2018-06-16T06:19:23.149Z,101310.75
2018-06-16T06:21:50.081Z,101307.85
2018-06-16T06:24:17.009Z,101306.67
2018-06-16T06:26:43.933Z,101312.81
2018-06-16T06:29:10.857Z,101307.53
2018-06-16T06:31:37.793Z,101308.55
2018-06-16T06:34:04.739Z,101311.61
2018-06-16T06:36:31.652Z,101311.49
2018-06-16T06:38:58.573Z,101303.13
2018-06-16T06:41:25.493Z,101307.82
2018-06-16T06:43:52.419Z,101309.62
2018-06-16T06:46:19.358Z,101302.63
2018-06-16T06:48:46.306Z,101303.55
2018-06-16T06:51:13.227Z,101304.13
2018-06-16T06:53:40.188Z,101302.52
2018-06-16T06:56:07.107Z,101302.28
2018-06-16T06:58:34.033Z,101296.48
2018-06-16T07:01:00.944Z,101294.71
2018-06-16T07:03:27.872Z,101296.12
2018-06-16T07:05:54.801Z,101294.77
2018-06-16T07:08:22.181Z,101298.49
2018-06-16T07:10:49.161Z,101290.91
2018-06-16T07:13:16.043Z,101284.39
2018-06-16T07:15:42.982Z,101286.89
2018-06-16T07:18:09.906Z,101279.88
2018-06-16T07:20:36.936Z,101275.85
2018-06-16T07:23:03.854Z,101270.02
2018-06-16T07:25:30.795Z,101275.31
2018-06-16T07:27:57.705Z,101272.59
2018-06-16T07:30:24.628Z,101271.39
2018-06-16T07:32:51.545Z,101275.95
2018-06-16T07:35:18.459Z,101282.59
2018-06-16T07:37:45.365Z,101276.45
2018-06-16T07:40:12.318Z,101276.53
2018-06-16T07:42:39.247Z,101271.86
2018-06-16T07:45:06.189Z,101279.52
2018-06-16T07:47:33.117Z,101272.06
2018-06-16T07:50:00.054Z,101267.45
2018-06-16T07:52:26.970Z,101270.89
2018-06-16T07:54:53.943Z,101256.05
2018-06-16T07:57:20.859Z,101263.98
2018-06-16T07:59:47.789Z,101249.52
2018-06-16T08:02:14.706Z,101253.19
2018-06-16T08:04:41.632Z,101257.45
2018-06-16T08:07:08.558Z,101262.96
2018-06-16T08:09:35.494Z,101255.94
2018-06-16T08:12:02.406Z,101254.63
2018-06-16T08:14:29.460Z,101247.21
2018-06-16T08:16:56.369Z,101241.11
2018-06-16T08:19:23.274Z,101243.20
2018-06-16T08:21:50.269Z,101242.58
2018-06-16T08:24:19.322Z,101241.31
2018-06-16T08:26:46.436Z,101246.04
2018-06-16T08:29:13.349Z,101246.00
2018-06-16T08:31:40.264Z,101243.89
2018-06-16T08:34:07.268Z,101240.80
2018-06-16T08:36:34.174Z,101241.16
2018-06-16T08:39:01.054Z,101239.98
2018-06-16T08:41:27.956Z,101237.64
2018-06-16T08:43:54.847Z,101239.89
2018-06-16T08:46:21.725Z,101233.17
2018-06-16T08:48:48.633Z,101236.58
2018-06-16T08:51:15.521Z,101238.51
2018-06-16T08:53:42.401Z,101233.03
2018-06-16T08:56:09.289Z,101224.41
2018-06-16T08:58:36.217Z,101219.36
2018-06-16T09:01:03.197Z,101222.74
2018-06-16T09:03:30.102Z,101223.30
2018-06-16T09:05:56.997Z,101222.43
2018-06-16T09:08:23.890Z,101217.38
2018-06-16T09:10:50.797Z,101214.59
2018-06-16T09:13:17.669Z,101216.66
2018-06-16T09:15:44.557Z,101215.52
2018-06-16T09:18:11.426Z,101211.62
2018-06-16T09:20:38.326Z,101211.29
2018-06-16T09:23:05.210Z,101207.47
2018-06-16T09:25:32.649Z,101209.50
2018-06-16T09:27:59.547Z,101202.60
2018-06-16T09:30:26.419Z,101199.77
2018-06-16T09:32:53.424Z,101206.16
2018-06-16T09:35:20.340Z,101202.23
2018-06-16T09:37:47.237Z,101204.20
2018-06-16T09:40:14.126Z,101194.00
2018-06-16T09:42:41.197Z,101190.78
2018-06-16T09:45:08.110Z,101186.25
2018-06-16T09:47:35.030Z,101183.66
2018-06-16T09:50:01.954Z,101186.37
2018-06-16T09:52:28.844Z,101185.38
2018-06-16T09:54:56.008Z,101180.94
2018-06-16T09:57:22.893Z,101183.77
2018-06-16T09:59:50.173Z,101194.11
2018-06-16T10:02:17.063Z,101188.22
2018-06-16T10:04:43.946Z,101187.45
2018-06-16T10:07:12.593Z,101181.47
2018-06-16T10:09:39.489Z,101177.97
2018-06-16T10:12:07.222Z,101179.95
2018-06-16T10:14:34.105Z,101169.69
2018-06-16T10:17:00.996Z,101173.82
2018-06-16T10:19:29.348Z,101172.13
2018-06-16T10:21:56.248Z,101164.21
2018-06-16T10:24:23.117Z,101167.62
2018-06-16T10:26:50.026Z,101153.70
2018-06-16T10:29:19.105Z,101155.17
2018-06-16T10:31:46.019Z,101155.41
2018-06-16T10:34:12.926Z,101158.56
2018-06-16T10:36:41.910Z,101156.49
2018-06-16T10:39:09.137Z,101156.30
2018-06-16T10:41:36.042Z,101154.13
2018-06-16T10:44:03.066Z,101149.28
2018-06-16T10:46:30.890Z,101155.94
2018-06-16T10:48:57.779Z,101157.34
2018-06-16T10:51:24.681Z,101151.05
2018-06-16T10:53:53.718Z,101152.38
2018-06-16T10:56:20.637Z,101147.73
2018-06-16T10:58:47.527Z,101146.84
2018-06-16T11:01:15.438Z,101150.52
2018-06-16T11:03:42.357Z,101145.64
2018-06-16T11:06:09.241Z,101142.14
2018-06-16T11:08:36.144Z,101140.84
2018-06-16T11:11:03.061Z,101125.44
2018-06-16T11:13:30.261Z,101129.09
2018-06-16T11:15:57.157Z,101126.52
2018-06-16T11:18:24.666Z,101118.27
2018-06-16T11:20:51.553Z,101123.47
2018-06-16T11:23:18.473Z,101118.47
2018-06-16T11:25:45.381Z,101101.67
2018-06-16T11:28:12.281Z,101107.29
2018-06-16T11:30:39.177Z,101101.00
2018-06-16T11:33:06.083Z,101095.70
2018-06-16T11:35:32.957Z,101093.52
2018-06-16T11:37:59.848Z,101089.72
2018-06-16T11:40:26.754Z,101098.12
2018-06-16T11:42:53.743Z,101098.07
2018-06-16T11:45:20.635Z,101095.80
2018-06-16T11:47:47.526Z,101089.37
2018-06-16T11:50:14.410Z,101097.45
2018-06-16T11:52:41.300Z,101090.46
2018-06-16T11:55:08.177Z,101089.45
2018-06-16T11:57:35.122Z,101088.75
2018-06-16T12:00:01.982Z,101081.45
2018-06-16T12:02:28.905Z,101084.95
2018-06-16T12:04:55.890Z,101088.06
2018-06-16T12:07:22.779Z,101088.67
2018-06-16T12:09:49.644Z,101088.23
2018-06-16T12:12:16.546Z,101088.23
2018-06-16T12:14:43.432Z,101083.91
2018-06-16T12:17:10.322Z,101083.42
2018-06-16T12:19:37.213Z,101074.05
2018-06-16T12:22:04.088Z,101076.84
2018-06-16T12:24:30.994Z,101073.72
2018-06-16T12:26:57.922Z,101074.56
2018-06-16T12:29:24.806Z,101077.70
2018-06-16T12:31:51.693Z,101075.46
2018-06-16T12:34:18.594Z,101073.16
2018-06-16T12:36:45.474Z,101088.58
2018-06-16T12:39:12.365Z,101076.72
2018-06-16T12:41:39.366Z,101081.14
2018-06-16T12:44:06.514Z,101079.32
2018-06-16T12:46:33.399Z,101080.70
2018-06-16T12:49:00.281Z,101080.05
2018-06-16T12:51:27.173Z,101081.28
2018-06-16T12:53:54.058Z,101074.20
2018-06-16T12:56:20.927Z,101070.30
2018-06-16T12:58:47.904Z,101073.41
2018-06-16T13:01:14.786Z,101076.43
2018-06-16T13:03:41.666Z,101083.07
2018-06-16T13:06:08.546Z,101081.66
2018-06-16T13:08:35.427Z,101083.59
2018-06-16T13:11:02.308Z,101071.67
2018-06-16T13:13:29.273Z,101076.78
2018-06-16T13:15:56.183Z,101078.09
2018-06-16T13:18:23.071Z,101087.28
2018-06-16T13:20:49.950Z,101084.47
2018-06-16T13:23:16.845Z,101086.77
2018-06-16T13:25:43.802Z,101080.05
2018-06-16T13:28:10.733Z,101073.19
2018-06-16T13:30:37.644Z,101077.09
2018-06-16T13:33:04.581Z,101072.91
2018-06-16T13:35:31.478Z,101066.41
2018-06-16T13:37:58.396Z,101078.51
2018-06-16T13:40:25.316Z,101082.70
2018-06-16T13:42:52.233Z,101082.89
2018-06-16T13:45:19.153Z,101075.02
2018-06-16T13:47:46.054Z,101076.19
2018-06-16T13:50:12.966Z,101067.66
2018-06-16T13:52:39.883Z,101061.50
2018-06-16T13:55:06.818Z,101056.70
2018-06-16T13:57:33.739Z,101050.12
2018-06-16T14:00:00.638Z,101043.93
2018-06-16T14:02:27.525Z,101047.62
2018-06-16T14:04:54.434Z,101045.44
2018-06-16T14:07:21.413Z,101043.66
2018-06-16T14:09:48.293Z,101043.41
2018-06-16T14:12:15.215Z,101035.95
2018-06-16T14:14:42.124Z,101026.83
2018-06-16T14:17:09.021Z,101027.96
2018-06-16T14:19:35.933Z,101022.80
2018-06-16T14:22:02.870Z,101020.66
2018-06-16T14:24:29.821Z,101018.44
2018-06-16T14:26:56.726Z,101012.48
2018-06-16T14:29:23.646Z,101013.94
2018-06-16T14:31:50.570Z,101010.67
2018-06-16T14:34:20.627Z,101007.15
2018-06-16T14:36:50.157Z,101010.81
2018-06-16T14:39:19.442Z,101003.56
2018-06-16T14:41:46.326Z,101002.07
2018-06-16T14:44:13.289Z,100999.77
2018-06-16T14:46:40.205Z,100992.05
2018-06-16T14:49:07.097Z,100990.77
2018-06-16T14:51:33.985Z,100988.38
2018-06-16T14:54:01.150Z,100986.20
2018-06-16T14:56:28.087Z,100988.17
2018-06-16T14:58:54.994Z,100987.53
2018-06-16T15:01:21.886Z,100997.86
2018-06-16T15:03:48.813Z,100993.22
2018-06-16T15:06:15.726Z,100992.78
2018-06-16T15:08:42.625Z,100991.06
2018-06-16T15:11:09.539Z,100996.31
2018-06-16T15:13:36.574Z,100988.58
2018-06-16T15:16:03.516Z,100984.81
2018-06-16T15:18:30.426Z,100992.37
2018-06-16T15:20:57.355Z,101000.27
2018-06-16T15:23:24.277Z,101048.45
2018-06-16T15:25:51.217Z,101085.09
2018-06-16T15:28:18.158Z,101074.12
2018-06-16T15:30:45.089Z,101079.39
2018-06-16T15:33:12.017Z,101060.86
2018-06-16T15:35:38.945Z,101041.52
2018-06-16T15:38:05.878Z,101035.45
2018-06-16T15:40:32.814Z,101018.52
2018-06-16T15:42:59.733Z,101016.30
2018-06-16T15:45:26.653Z,101013.98
2018-06-16T15:47:53.553Z,101006.04
2018-06-16T15:50:20.461Z,101011.69
2018-06-16T15:52:47.396Z,101005.07
2018-06-16T15:55:14.310Z,101001.27
2018-06-16T15:57:41.209Z,100999.41
2018-06-16T16:00:08.130Z,100998.92
2018-06-16T16:02:35.045Z,100998.62
2018-06-16T16:05:01.969Z,100997.06
2018-06-16T16:07:28.878Z,100992.39
2018-06-16T16:09:56.094Z,100991.45
2018-06-16T16:12:22.993Z,100991.14
2018-06-16T16:14:49.889Z,100980.86
2018-06-16T16:17:17.775Z,100988.84
2018-06-16T16:19:44.686Z,100980.77
2018-06-16T16:22:11.745Z,100983.26
2018-06-16T16:24:38.645Z,100976.48
2018-06-16T16:27:05.585Z,100977.50
2018-06-16T16:29:32.478Z,100975.56
2018-06-16T16:31:59.423Z,100969.89
2018-06-16T16:34:26.321Z,100971.64
2018-06-16T16:36:53.223Z,100972.58
2018-06-16T16:39:20.126Z,100968.17
2018-06-16T16:41:47.030Z,100972.00
2018-06-16T16:44:13.917Z,100973.72
2018-06-16T16:46:40.817Z,100974.84
2018-06-16T16:49:07.937Z,100974.53
2018-06-16T16:51:34.935Z,100982.37
2018-06-16T16:54:02.067Z,100986.94
2018-06-16T16:56:28.989Z,100997.90
2018-06-16T16:58:55.898Z,100991.72
2018-06-16T17:01:22.810Z,100992.27
2018-06-16T17:03:49.721Z,100993.24
2018-06-16T17:06:16.633Z,100996.19
2018-06-16T17:08:43.518Z,100995.86
2018-06-16T17:11:10.417Z,101001.97
2018-06-16T17:13:37.309Z,100997.94
2018-06-16T17:16:04.277Z,101006.08
2018-06-16T17:18:31.176Z,101002.02
2018-06-16T17:20:58.082Z,101003.67
2018-06-16T17:23:24.986Z,101001.27
2018-06-16T17:25:51.940Z,101003.30
2018-06-16T17:28:18.845Z,101007.55
2018-06-16T17:30:45.750Z,101010.20
2018-06-16T17:33:12.654Z,101011.55
2018-06-16T17:35:39.590Z,101010.94
2018-06-16T17:38:06.777Z,101011.64
2018-06-16T17:40:33.689Z,101010.20
2018-06-16T17:43:00.613Z,101014.56
2018-06-16T17:45:27.531Z,101014.61
2018-06-16T17:48:01.338Z,101016.16
2018-06-16T17:50:28.237Z,101023.35
2018-06-16T17:52:55.194Z,101024.59
2018-06-16T17:55:22.121Z,101026.05
2018-06-16T17:57:49.035Z,101026.34
2018-06-16T18:00:15.953Z,101034.27
2018-06-16T18:02:42.866Z,101027.12
2018-06-16T18:05:09.782Z,101035.75
2018-06-16T18:07:36.725Z,101034.30
2018-06-16T18:10:04.312Z,101031.25
2018-06-16T18:12:31.222Z,101036.23
2018-06-16T18:14:58.125Z,101042.74
2018-06-16T18:17:26.808Z,101041.03
2018-06-16T18:19:53.737Z,101040.45
2018-06-16T18:22:20.645Z,101044.87
2018-06-16T18:24:47.570Z,101042.28
2018-06-16T18:27:14.500Z,101046.91
2018-06-16T18:29:45.719Z,101048.23
2018-06-16T18:32:12.657Z,101051.89
2018-06-16T18:34:39.553Z,101050.73
2018-06-16T18:37:06.469Z,101048.27
2018-06-16T18:39:33.382Z,101049.30
2018-06-16T18:42:00.309Z,101047.96
2018-06-16T18:44:27.223Z,101053.13
2018-06-16T18:46:54.144Z,101052.33
2018-06-16T18:49:21.037Z,101060.10
2018-06-16T18:51:47.953Z,101056.36
2018-06-16T18:54:14.875Z,101060.77
2018-06-16T18:56:41.819Z,101062.48
2018-06-16T18:59:08.723Z,101059.52
2018-06-16T19:01:35.657Z,101063.04
2018-06-16T19:04:02.589Z,101060.34
2018-06-16T19:06:29.497Z,101063.81
2018-06-16T19:08:56.421Z,101063.22
2018-06-16T19:11:23.334Z,101064.65
2018-06-16T19:13:50.245Z,101062.42
2018-06-16T19:16:17.159Z,101070.67
2018-06-16T19:18:44.085Z,101071.49
2018-06-16T19:21:10.981Z,101070.42
2018-06-16T19:23:39.190Z,101073.41
2018-06-16T19:26:06.425Z,101073.89
2018-06-16T19:28:33.393Z,101072.91
2018-06-16T19:31:00.253Z,101075.66
2018-06-16T19:33:27.173Z,101075.77
2018-06-16T19:36:00.897Z,101082.14
2018-06-16T19:38:27.955Z,101080.82
2018-06-16T19:40:54.873Z,101084.80
2018-06-16T19:43:21.891Z,101083.42
2018-06-16T19:45:49.074Z,101085.31
2018-06-16T19:48:15.981Z,101080.50
2018-06-16T19:50:42.878Z,101082.42
2018-06-16T19:53:09.797Z,101090.13
2018-06-16T19:55:36.704Z,101091.23
2018-06-16T19:58:03.654Z,101095.58
2018-06-16T20:00:30.577Z,101093.23
2018-06-16T20:02:57.493Z,101095.23
2018-06-16T20:05:24.405Z,101089.41
2018-06-16T20:07:51.326Z,101091.08
2018-06-16T20:10:18.229Z,101090.86
2018-06-16T20:12:45.201Z,101086.59
2018-06-16T20:15:12.093Z,101085.03
2018-06-16T20:17:39.014Z,101082.35
2018-06-16T20:20:06.644Z,101084.65
2018-06-16T20:22:33.596Z,101088.11
2018-06-16T20:25:00.503Z,101091.64
2018-06-16T20:27:31.462Z,101091.64
2018-06-16T20:29:58.490Z,101085.35
2018-06-16T20:32:25.393Z,101085.67
2018-06-16T20:34:52.333Z,101086.12
2018-06-16T20:37:19.297Z,101082.35
2018-06-16T20:39:46.169Z,101086.69
2018-06-16T20:42:13.046Z,101089.68
2018-06-16T20:44:39.957Z,101091.17
2018-06-16T20:47:06.839Z,101089.68
2018-06-16T20:49:33.737Z,101092.74
2018-06-16T20:52:00.629Z,101095.91
2018-06-16T20:54:27.524Z,101092.13
2018-06-16T20:56:54.438Z,101098.74
2018-06-16T20:59:21.350Z,101101.66
2018-06-16T21:01:48.265Z,101092.65
2018-06-16T21:04:16.227Z,101089.94
2018-06-16T21:06:43.137Z,101088.45
2018-06-16T21:09:11.252Z,101080.28
2018-06-16T21:11:38.141Z,101074.59
2018-06-16T21:14:05.055Z,101074.28
2018-06-16T21:16:31.975Z,101069.47
2018-06-16T21:18:58.885Z,101071.53
2018-06-16T21:21:25.820Z,101073.90
2018-06-16T21:23:52.685Z,101066.72
2018-06-16T21:26:19.599Z,101059.01
2018-06-16T21:28:46.585Z,101058.70
2018-06-16T21:31:13.487Z,101062.55
2018-06-16T21:33:40.417Z,101054.58
2018-06-16T21:36:07.322Z,101051.02
2018-06-16T21:38:34.226Z,101040.85
2018-06-16T21:41:01.124Z,101046.79
2018-06-16T21:43:28.062Z,101060.95
2018-06-16T21:45:54.965Z,101063.34
2018-06-16T21:48:21.886Z,101060.83
2018-06-16T21:50:48.855Z,101054.44
2018-06-16T21:53:15.757Z,101049.97
2018-06-16T21:55:42.674Z,101058.42
2018-06-16T21:58:09.580Z,101056.65
2018-06-16T22:00:36.514Z,101055.02
2018-06-16T22:03:04.881Z,101056.05
2018-06-16T22:05:31.866Z,101058.08
2018-06-16T22:08:04.565Z,101068.31
2018-06-16T22:10:31.543Z,101069.19
2018-06-16T22:12:58.389Z,101057.31
2018-06-16T22:15:25.335Z,101052.36
2018-06-16T22:17:52.238Z,101054.03
2018-06-16T22:20:19.146Z,101053.23
2018-06-16T22:22:46.061Z,101056.28
2018-06-16T22:25:13.377Z,101066.17
2018-06-16T22:27:40.744Z,101064.42
2018-06-16T22:30:07.682Z,101064.27
2018-06-16T22:32:35.190Z,101051.05
2018-06-16T22:35:02.118Z,101043.66
2018-06-16T22:37:29.021Z,101044.22
2018-06-16T22:39:55.936Z,101055.69
2018-06-16T22:42:22.857Z,101052.70
2018-06-16T22:44:49.757Z,101058.31
2018-06-16T22:47:16.644Z,101063.59
2018-06-16T22:49:43.713Z,101059.34
2018-06-16T22:52:10.677Z,101054.00
2018-06-16T22:54:37.625Z,101054.00
2018-06-16T22:57:04.525Z,101054.15
2018-06-16T22:59:31.429Z,101047.46
2018-06-16T23:01:58.323Z,101052.89
2018-06-16T23:04:25.209Z,101052.89
2018-06-16T23:06:52.114Z,101055.11
2018-06-16T23:09:19.009Z,101060.27
2018-06-16T23:11:45.902Z,101054.56
2018-06-16T23:14:12.806Z,101045.05
2018-06-16T23:16:39.803Z,101046.69
2018-06-16T23:19:06.689Z,101053.45
2018-06-16T23:21:33.629Z,101056.67
2018-06-16T23:24:06.558Z,101060.98
2018-06-16T23:26:33.492Z,101057.93
2018-06-16T23:29:00.425Z,101049.52
2018-06-16T23:31:27.342Z,101050.00
2018-06-16T23:33:54.276Z,101058.70
2018-06-16T23:36:21.221Z,101065.16
2018-06-16T23:38:48.116Z,101069.09
2018-06-16T23:41:15.034Z,101079.02
2018-06-16T23:43:41.933Z,101088.61
2018-06-16T23:46:08.847Z,101086.09
2018-06-16T23:48:35.753Z,101068.78
2018-06-16T23:51:02.665Z,101076.00
2018-06-16T23:53:29.573Z,101079.97
2018-06-16T23:55:56.511Z,101082.09
2018-06-16T23:58:23.416Z,101089.98
